createdAt,value
2019-04-21T00:01:55.980Z,16.20
2019-04-21T00:04:38.110Z,11.47
2019-04-21T00:07:13.201Z,9.70
2019-04-21T00:12:18.127Z,10.17
2019-04-21T00:14:45.066Z,9.10
2019-04-21T00:17:07.952Z,8.57
2019-04-21T00:19:38.626Z,11.27
2019-04-21T00:22:19.456Z,12.43
2019-04-21T00:24:56.235Z,14.77
2019-04-21T00:27:28.085Z,11.40
2019-04-21T00:30:04.520Z,11.53
2019-04-21T00:32:29.220Z,10.03
2019-04-21T00:34:52.288Z,9.83
2019-04-21T00:37:28.159Z,10.00
2019-04-21T00:40:14.453Z,11.27
2019-04-21T00:42:38.566Z,10.03
2019-04-21T00:45:07.899Z,10.43
2019-04-21T00:47:38.769Z,10.97
2019-04-21T00:50:12.812Z,9.40
2019-04-21T00:53:13.077Z,8.53
2019-04-21T00:58:26.866Z,11.03
2019-04-21T01:00:51.550Z,9.77
2019-04-21T01:03:20.684Z,10.03
2019-04-21T01:05:56.087Z,14.33
2019-04-21T01:08:21.977Z,10.20
2019-04-21T01:10:49.246Z,10.13
2019-04-21T01:13:27.782Z,12.33
2019-04-21T01:16:00.395Z,10.30
2019-04-21T01:18:30.736Z,10.53
2019-04-21T01:20:38.413Z,12.83
2019-04-21T01:23:08.462Z,12.23
2019-04-21T01:25:44.878Z,11.07
2019-04-21T01:28:24.096Z,9.90
2019-04-21T01:30:57.125Z,10.20
2019-04-21T01:33:34.973Z,10.60
2019-04-21T01:35:58.307Z,11.97
2019-04-21T01:38:43.816Z,14.07
2019-04-21T01:41:09.477Z,10.97
2019-04-21T01:43:38.413Z,10.97
2019-04-21T01:46:06.647Z,11.40
2019-04-21T01:48:37.180Z,11.07
2019-04-21T01:51:05.304Z,11.03
2019-04-21T01:53:48.314Z,10.57
2019-04-21T01:56:38.858Z,11.53
2019-04-21T01:59:00.682Z,11.97
2019-04-21T02:01:39.043Z,15.17
2019-04-21T02:04:16.722Z,10.67
2019-04-21T02:06:44.433Z,10.80
2019-04-21T02:09:15.388Z,10.60
2019-04-21T02:11:50.273Z,11.30
2019-04-21T02:14:22.923Z,11.53
2019-04-21T02:16:57.523Z,18.13
2019-04-21T02:19:21.607Z,12.10
2019-04-21T02:21:47.803Z,12.43
2019-04-21T02:24:31.660Z,11.47
2019-04-21T02:27:04.201Z,13.43
2019-04-21T02:37:28.521Z,12.33
2019-04-21T02:39:51.397Z,11.83
2019-04-21T02:42:13.033Z,11.90
2019-04-21T02:44:52.260Z,17.40
2019-04-21T02:47:27.319Z,12.40
2019-04-21T02:54:53.973Z,11.43
2019-04-21T02:57:26.877Z,11.97
2019-04-21T03:00:06.900Z,10.93
2019-04-21T03:03:09.149Z,10.80
2019-04-21T03:06:02.400Z,11.50
2019-04-21T03:11:08.921Z,14.70
2019-04-21T03:18:42.080Z,13.40
2019-04-21T03:21:13.375Z,10.27
2019-04-21T03:28:36.414Z,9.73
2019-04-21T03:31:39.272Z,12.07
2019-04-21T03:34:15.222Z,12.30
2019-04-21T03:38:51.109Z,11.53
2019-04-21T03:46:23.090Z,13.77
2019-04-21T03:53:53.922Z,10.77
2019-04-21T03:56:45.338Z,10.50
2019-04-21T03:58:58.135Z,12.40
2019-04-21T04:01:44.482Z,13.77
2019-04-21T04:10:13.949Z,13.30
2019-04-21T04:12:50.446Z,11.60
2019-04-21T04:15:34.782Z,11.57
2019-04-21T04:17:51.523Z,11.17
2019-04-21T04:20:28.620Z,11.97
2019-04-21T04:22:56.274Z,14.17
2019-04-21T04:25:27.980Z,10.50
2019-04-21T04:30:31.710Z,12.70
2019-04-21T04:32:59.464Z,12.73
2019-04-21T04:35:38.016Z,14.97
2019-04-21T04:38:03.343Z,12.30
2019-04-21T04:40:55.940Z,14.33
2019-04-21T04:43:28.560Z,13.00
2019-04-21T04:45:56.406Z,10.97
2019-04-21T04:48:27.910Z,12.87
2019-04-21T04:51:01.300Z,14.67
2019-04-21T04:53:41.914Z,13.23
2019-04-21T04:56:03.701Z,15.07
2019-04-21T05:01:14.755Z,12.80
2019-04-21T05:06:34.527Z,14.73
2019-04-21T05:11:44.607Z,12.50
2019-04-21T05:16:41.095Z,12.87
2019-04-21T05:23:51.093Z,13.63
2019-04-21T05:26:16.272Z,13.80
2019-04-21T05:28:47.080Z,12.93
2019-04-21T05:31:51.127Z,13.90
2019-04-21T05:34:21.985Z,13.63
2019-04-21T05:37:10.433Z,13.63
2019-04-21T05:39:40.684Z,11.63
2019-04-21T05:42:08.129Z,11.80
2019-04-21T05:47:29.568Z,12.90
2019-04-21T05:49:56.036Z,13.43
2019-04-21T05:52:22.551Z,13.03
2019-04-21T05:55:06.303Z,11.03
2019-04-21T05:57:28.897Z,12.43
2019-04-21T06:00:04.338Z,12.00
2019-04-21T06:02:35.488Z,12.57
2019-04-21T06:07:33.437Z,10.20
2019-04-21T06:10:05.440Z,9.60
2019-04-21T06:12:40.758Z,10.43
2019-04-21T06:15:14.338Z,10.57
2019-04-21T06:17:43.925Z,49.77
2019-04-21T06:20:12.567Z,69.53
2019-04-21T06:22:47.367Z,57.33
2019-04-21T06:25:41.613Z,33.57
2019-04-21T06:27:52.574Z,10.60
2019-04-21T06:30:22.085Z,9.33
2019-04-21T06:35:48.391Z,9.60
2019-04-21T06:38:13.813Z,10.03
2019-04-21T06:40:42.438Z,8.20
2019-04-21T06:43:19.662Z,7.93
2019-04-21T06:45:51.109Z,7.33
2019-04-21T06:48:20.749Z,7.40
2019-04-21T06:50:46.122Z,7.23
2019-04-21T06:53:20.679Z,7.80
2019-04-21T06:55:44.105Z,7.80
2019-04-21T06:58:23.163Z,9.80
2019-04-21T07:00:47.712Z,8.40
2019-04-21T07:05:57.609Z,8.27
2019-04-21T07:10:56.203Z,7.53
2019-04-21T07:13:23.739Z,7.73
2019-04-21T07:16:02.576Z,7.30
2019-04-21T07:18:37.489Z,7.00
2019-04-21T07:21:01.230Z,9.13
2019-04-21T07:23:32.367Z,9.87
2019-04-21T07:26:03.187Z,7.80
2019-04-21T07:28:32.237Z,7.90
2019-04-21T07:31:09.927Z,7.47
2019-04-21T07:36:11.174Z,7.77
2019-04-21T07:38:33.170Z,7.57
2019-04-21T07:41:02.558Z,8.97
2019-04-21T07:43:34.343Z,7.37
2019-04-21T07:46:06.458Z,7.87
2019-04-21T07:48:49.719Z,7.97
2019-04-21T07:51:31.627Z,7.70
2019-04-21T07:54:01.941Z,7.20
2019-04-21T07:56:17.829Z,6.87
2019-04-21T07:59:05.327Z,7.50
2019-04-21T08:01:37.066Z,7.27
2019-04-21T08:04:23.110Z,6.77
2019-04-21T08:06:40.327Z,6.87
2019-04-21T08:09:08.859Z,7.53
2019-04-21T08:11:37.792Z,7.00
2019-04-21T08:14:11.240Z,7.53
2019-04-21T08:16:44.956Z,7.20
2019-04-21T08:19:14.493Z,6.77
2019-04-21T08:21:55.799Z,6.60
2019-04-21T08:24:16.279Z,7.25
2019-04-21T08:26:51.807Z,6.90
2019-04-21T08:29:26.015Z,7.80
2019-04-21T08:32:00.728Z,7.07
2019-04-21T08:34:21.630Z,7.17
2019-04-21T08:36:52.775Z,7.17
2019-04-21T08:39:33.162Z,7.43
2019-04-21T08:41:57.167Z,7.53
2019-04-21T08:44:38.190Z,7.07
2019-04-21T08:46:58.781Z,7.50
2019-04-21T08:49:26.761Z,6.72
2019-04-21T08:52:14.807Z,7.45
2019-04-21T08:54:36.779Z,5.97
2019-04-21T08:57:28.865Z,6.17
2019-04-21T09:03:06.442Z,6.10
2019-04-21T09:05:35.644Z,5.80
2019-04-21T09:08:05.280Z,5.15
2019-04-21T09:10:42.218Z,5.37
2019-04-21T09:13:04.522Z,6.42
2019-04-21T09:15:35.058Z,5.60
2019-04-21T09:18:10.205Z,4.90
2019-04-21T09:20:46.068Z,5.70
2019-04-21T09:23:18.141Z,6.28
2019-04-21T09:25:46.748Z,6.00
2019-04-21T09:28:11.124Z,6.50
2019-04-21T09:30:33.793Z,5.90
2019-04-21T09:33:02.414Z,6.30
2019-04-21T09:35:33.468Z,6.10
2019-04-21T09:38:16.017Z,6.13
2019-04-21T09:40:40.095Z,5.90
2019-04-21T09:43:10.316Z,6.27
2019-04-21T09:45:38.049Z,6.73
2019-04-21T09:48:12.429Z,6.70
2019-04-21T09:50:39.718Z,7.40
2019-04-21T09:53:16.791Z,7.17
2019-04-21T09:55:48.681Z,6.53
2019-04-21T09:58:21.796Z,7.83
2019-04-21T10:00:56.606Z,6.33
2019-04-21T10:03:17.997Z,6.27
2019-04-21T10:05:47.698Z,6.93
2019-04-21T10:08:17.212Z,5.67
2019-04-21T10:10:46.902Z,6.70
2019-04-21T10:13:17.120Z,6.97
2019-04-21T10:15:48.982Z,7.10
2019-04-21T10:18:19.997Z,6.77
2019-04-21T10:20:49.597Z,7.37
2019-04-21T10:23:19.110Z,6.80
2019-04-21T10:25:48.657Z,5.97
2019-04-21T10:28:19.097Z,6.97
2019-04-21T10:30:49.066Z,7.10
2019-04-21T10:33:18.698Z,7.23
2019-04-21T10:35:48.938Z,7.57
2019-04-21T10:38:28.222Z,8.10
2019-04-21T10:40:50.090Z,7.03
2019-04-21T10:43:22.152Z,7.23
2019-04-21T10:45:51.007Z,6.87
2019-04-21T10:48:20.985Z,7.03
2019-04-21T10:50:52.766Z,7.10
2019-04-21T10:53:27.049Z,6.63
2019-04-21T10:56:10.444Z,7.07
2019-04-21T10:58:34.176Z,6.13
2019-04-21T11:01:10.441Z,6.47
2019-04-21T11:03:44.882Z,7.63
2019-04-21T11:06:16.925Z,7.10
2019-04-21T11:08:50.666Z,7.33
2019-04-21T11:11:21.671Z,6.77
2019-04-21T11:13:52.625Z,6.90
2019-04-21T11:16:23.388Z,8.27
2019-04-21T11:18:53.667Z,8.80
2019-04-21T11:21:24.816Z,7.37
2019-04-21T11:23:54.477Z,7.33
2019-04-21T11:26:24.367Z,8.00
2019-04-21T11:28:54.913Z,7.57
2019-04-21T11:31:25.019Z,6.57
2019-04-21T11:33:55.381Z,7.00
2019-04-21T11:36:25.122Z,8.10
2019-04-21T11:39:24.627Z,6.73
2019-04-21T11:41:46.177Z,9.50
2019-04-21T11:44:16.323Z,8.50
2019-04-21T11:46:46.652Z,7.20
2019-04-21T11:49:17.975Z,7.40
2019-04-21T11:51:49.023Z,8.50
2019-04-21T11:54:19.171Z,8.27
2019-04-21T11:56:48.834Z,8.13
2019-04-21T11:59:19.534Z,6.93
2019-04-21T12:01:49.800Z,7.63
2019-04-21T12:04:19.414Z,6.80
2019-04-21T12:06:50.616Z,9.33
2019-04-21T12:09:21.022Z,7.67
2019-04-21T12:11:51.495Z,7.27
2019-04-21T12:14:21.770Z,7.80
2019-04-21T12:16:51.278Z,7.43
2019-04-21T12:19:21.060Z,7.70
2019-04-21T12:22:01.181Z,6.87
2019-04-21T12:24:22.096Z,6.87
2019-04-21T12:26:51.917Z,7.07
2019-04-21T12:29:22.777Z,6.90
2019-04-21T12:32:24.159Z,8.20
2019-04-21T12:34:55.314Z,6.03
2019-04-21T12:37:24.918Z,7.47
2019-04-21T12:39:54.800Z,7.97
2019-04-21T12:42:24.900Z,6.90
2019-04-21T12:44:55.114Z,7.07
2019-04-21T12:47:25.892Z,6.97
2019-04-21T12:49:56.915Z,6.80
2019-04-21T12:52:27.334Z,9.00
2019-04-21T12:54:57.621Z,7.90
2019-04-21T12:57:28.715Z,6.60
2019-04-21T12:59:58.499Z,7.50
2019-04-21T13:02:29.336Z,7.10
2019-04-21T13:04:59.687Z,10.43
2019-04-21T13:07:29.358Z,6.67
2019-04-21T13:10:00.104Z,8.80
2019-04-21T13:12:31.092Z,10.63
2019-04-21T13:15:02.513Z,8.37
2019-04-21T13:17:33.119Z,7.00
2019-04-21T13:20:03.464Z,6.80
2019-04-21T13:22:34.200Z,8.07
2019-04-21T13:25:05.420Z,6.67
2019-04-21T13:27:36.448Z,8.53
2019-04-21T13:30:10.468Z,7.30
2019-04-21T13:32:40.761Z,7.33
2019-04-21T13:35:10.856Z,6.63
2019-04-21T13:37:41.533Z,9.30
2019-04-21T13:40:46.140Z,7.20
2019-04-21T13:43:04.360Z,8.17
2019-04-21T13:45:34.316Z,6.87
2019-04-21T13:48:04.516Z,9.13
2019-04-21T13:50:35.284Z,7.83
2019-04-21T13:53:05.064Z,6.17
2019-04-21T13:55:36.878Z,8.10
2019-04-21T13:58:06.351Z,9.87
2019-04-21T14:00:37.972Z,8.80
2019-04-21T14:03:07.903Z,8.93
2019-04-21T14:05:38.206Z,8.13
2019-04-21T14:08:09.280Z,8.60
2019-04-21T14:10:39.763Z,6.73
2019-04-21T14:13:09.695Z,7.97
2019-04-21T14:15:39.949Z,7.20
2019-04-21T14:18:10.937Z,7.67
2019-04-21T14:20:40.477Z,8.37
2019-04-21T14:23:21.336Z,6.87
2019-04-21T14:25:41.967Z,6.70
2019-04-21T14:28:12.522Z,7.67
2019-04-21T14:30:44.137Z,6.87
2019-04-21T14:33:14.213Z,6.27
2019-04-21T14:35:45.074Z,6.90
2019-04-21T14:38:14.836Z,6.00
2019-04-21T14:40:44.941Z,6.23
2019-04-21T14:43:16.466Z,6.47
2019-04-21T14:45:54.735Z,7.67
2019-04-21T14:49:03.560Z,7.03
2019-04-21T14:51:45.409Z,6.90
2019-04-21T14:54:44.664Z,6.40
2019-04-21T14:57:15.534Z,6.80
2019-04-21T14:59:46.861Z,8.57
2019-04-21T15:02:18.011Z,7.20
2019-04-21T15:04:49.248Z,6.00
2019-04-21T15:07:21.333Z,8.30
2019-04-21T15:10:02.432Z,9.07
2019-04-21T15:12:23.609Z,7.43
2019-04-21T15:14:53.733Z,6.63
2019-04-21T15:17:24.923Z,6.17
2019-04-21T15:20:00.697Z,6.00
2019-04-21T15:22:30.442Z,6.17
2019-04-21T15:25:16.276Z,10.03
2019-04-21T15:27:46.809Z,5.87
2019-04-21T15:30:16.579Z,8.43
2019-04-21T15:32:46.513Z,6.27
2019-04-21T15:35:17.372Z,6.83
2019-04-21T15:37:47.175Z,6.70
2019-04-21T15:40:26.354Z,10.10
2019-04-21T15:42:48.600Z,7.20
2019-04-21T15:45:18.827Z,7.43
2019-04-21T15:47:49.970Z,7.30
2019-04-21T15:50:21.350Z,5.67
2019-04-21T15:52:51.810Z,6.27
2019-04-21T15:55:46.724Z,6.83
2019-04-21T15:58:24.757Z,9.50
2019-04-21T16:01:06.941Z,6.07
2019-04-21T16:03:36.600Z,6.47
2019-04-21T16:06:07.615Z,5.73
2019-04-21T16:08:37.828Z,8.07
2019-04-21T16:11:11.100Z,6.83
2019-04-21T16:13:41.675Z,10.10
2019-04-21T16:16:12.603Z,7.10
2019-04-21T16:18:42.662Z,5.80
2019-04-21T16:21:13.698Z,6.67
2019-04-21T16:23:44.463Z,6.60
2019-04-21T16:26:14.963Z,6.17
2019-04-21T16:28:45.175Z,6.30
2019-04-21T16:31:16.093Z,6.40
2019-04-21T16:33:49.043Z,7.20
2019-04-21T16:36:20.085Z,5.37
2019-04-21T16:38:51.364Z,5.67
2019-04-21T16:41:22.419Z,7.00
2019-04-21T16:43:53.209Z,6.00
2019-04-21T16:46:23.277Z,6.63
2019-04-21T16:48:53.758Z,7.13
2019-04-21T16:51:24.462Z,6.60
2019-04-21T16:54:06.017Z,5.27
2019-04-21T16:56:59.982Z,8.53
2019-04-21T16:59:38.987Z,6.70
2019-04-21T17:02:08.673Z,6.17
2019-04-21T17:04:38.287Z,6.20
2019-04-21T17:07:09.212Z,5.50
2019-04-21T17:09:40.910Z,6.70
2019-04-21T17:12:14.658Z,13.37
2019-04-21T17:14:57.120Z,6.07
2019-04-21T17:17:36.879Z,4.63
2019-04-21T17:19:54.053Z,6.00
2019-04-21T17:22:21.994Z,7.13
2019-04-21T17:24:52.640Z,5.60
2019-04-21T17:27:23.049Z,5.10
2019-04-21T17:29:54.686Z,5.83
2019-04-21T17:32:32.097Z,5.57
2019-04-21T17:34:59.563Z,7.90
2019-04-21T17:37:30.582Z,6.33
2019-04-21T17:40:04.814Z,5.93
2019-04-21T17:42:42.954Z,4.53
2019-04-21T17:45:05.506Z,5.23
2019-04-21T17:47:44.634Z,6.03
2019-04-21T17:50:15.624Z,5.00
2019-04-21T17:52:58.119Z,5.30
2019-04-21T17:55:31.221Z,16.80
2019-04-21T17:58:13.469Z,7.70
2019-04-21T18:03:31.610Z,8.80
2019-04-21T18:05:51.139Z,7.47
2019-04-21T18:08:36.934Z,7.23
2019-04-21T18:10:50.700Z,8.63
2019-04-21T18:13:14.582Z,6.83
2019-04-21T18:16:00.018Z,6.07
2019-04-21T18:18:14.494Z,4.83
2019-04-21T18:20:48.186Z,4.87
2019-04-21T18:23:39.431Z,6.70
2019-04-21T18:26:07.120Z,8.93
2019-04-21T18:28:32.527Z,9.90
2019-04-21T18:31:12.135Z,9.23
2019-04-21T18:33:47.865Z,6.00
2019-04-21T18:36:46.035Z,16.83
2019-04-21T18:39:47.639Z,24.00
2019-04-21T18:42:32.774Z,14.67
2019-04-21T18:48:09.398Z,14.63
2019-04-21T18:51:02.859Z,16.83
2019-04-21T18:53:54.324Z,11.20
2019-04-21T18:56:16.465Z,9.07
2019-04-21T18:58:46.526Z,8.77
2019-04-21T19:01:22.436Z,7.50
2019-04-21T19:03:51.148Z,7.10
2019-04-21T19:06:32.516Z,6.97
2019-04-21T19:09:11.603Z,8.77
2019-04-21T19:11:43.544Z,5.70
2019-04-21T19:14:30.372Z,16.20
2019-04-21T19:17:00.460Z,10.93
2019-04-21T19:19:49.036Z,7.63
2019-04-21T19:21:57.696Z,8.03
2019-04-21T19:27:03.212Z,6.90
2019-04-21T19:29:28.880Z,5.70
2019-04-21T19:31:54.967Z,7.77
2019-04-21T19:34:18.460Z,7.57
2019-04-21T19:36:51.262Z,8.87
2019-04-21T19:39:25.417Z,9.57
2019-04-21T19:41:58.577Z,10.13
2019-04-21T19:44:36.996Z,8.90
2019-04-21T19:47:02.975Z,7.77
2019-04-21T19:49:43.801Z,8.03
2019-04-21T19:51:59.367Z,7.00
2019-04-21T19:54:29.911Z,13.33
2019-04-21T19:56:53.687Z,6.73
2019-04-21T19:59:32.478Z,7.23
2019-04-21T20:01:56.203Z,10.23
2019-04-21T20:04:34.415Z,9.10
2019-04-21T20:07:10.331Z,15.80
2019-04-21T20:09:46.211Z,10.37
2019-04-21T20:12:29.753Z,11.07
2019-04-21T20:15:08.497Z,6.93
2019-04-21T20:17:31.064Z,8.37
2019-04-21T20:19:44.843Z,8.97
2019-04-21T20:22:14.975Z,9.17
2019-04-21T20:24:53.955Z,8.80
2019-04-21T20:27:24.019Z,8.93
2019-04-21T20:30:07.093Z,10.67
2019-04-21T20:32:42.712Z,8.47
2019-04-21T20:35:18.136Z,9.17
2019-04-21T20:37:42.166Z,7.43
2019-04-21T20:40:02.219Z,9.53
2019-04-21T20:42:42.863Z,8.80
2019-04-21T20:45:29.642Z,8.10
2019-04-21T20:47:39.147Z,11.33
2019-04-21T20:50:17.690Z,8.20
2019-04-21T20:52:53.810Z,7.43
2019-04-21T20:55:19.383Z,9.53
2019-04-21T20:57:48.996Z,8.47
2019-04-21T21:00:32.226Z,8.57
2019-04-21T21:03:06.167Z,8.40
2019-04-21T21:05:27.659Z,9.70
2019-04-21T21:08:06.531Z,10.43
2019-04-21T21:10:33.898Z,7.70
2019-04-21T21:13:14.521Z,9.90
2019-04-21T21:15:35.865Z,7.73
2019-04-21T21:18:15.477Z,8.83
2019-04-21T21:20:43.045Z,9.33
2019-04-21T21:23:06.400Z,10.23
2019-04-21T21:25:44.631Z,7.47
2019-04-21T21:28:07.501Z,9.93
2019-04-21T21:30:41.426Z,10.83
2019-04-21T21:33:17.237Z,15.03
2019-04-21T21:35:41.117Z,15.17
2019-04-21T21:38:26.575Z,10.60
2019-04-21T21:40:49.928Z,11.83
2019-04-21T21:43:12.894Z,8.37
2019-04-21T21:45:45.825Z,7.83
2019-04-21T21:48:30.101Z,8.03
2019-04-21T21:50:49.321Z,10.43
2019-04-21T21:53:19.029Z,9.73
2019-04-21T21:55:46.711Z,8.43
2019-04-21T21:58:25.092Z,9.33
2019-04-21T22:00:54.653Z,8.90
2019-04-21T22:03:30.605Z,9.50
2019-04-21T22:06:02.192Z,9.17
2019-04-21T22:08:25.590Z,9.00
2019-04-21T22:10:55.205Z,9.27
2019-04-21T22:13:34.154Z,10.60
2019-04-21T22:16:02.986Z,8.77
2019-04-21T22:18:43.142Z,10.00
2019-04-21T22:21:11.493Z,9.67
2019-04-21T22:23:42.586Z,10.73
2019-04-21T22:26:03.064Z,7.27
2019-04-21T22:28:33.789Z,9.33
2019-04-21T22:31:05.622Z,8.23
2019-04-21T22:33:41.853Z,8.83
2019-04-21T22:36:23.830Z,11.47
2019-04-21T22:38:50.958Z,18.10
2019-04-21T22:41:21.405Z,11.63
2019-04-21T22:43:46.000Z,7.87
2019-04-21T22:46:15.476Z,8.93
2019-04-21T22:48:52.174Z,9.67
2019-04-21T22:51:23.755Z,8.77
2019-04-21T22:53:50.762Z,7.90
2019-04-21T22:56:25.816Z,8.23
2019-04-21T22:58:53.003Z,10.67
2019-04-21T23:01:28.244Z,10.63
2019-04-21T23:03:59.233Z,8.93
2019-04-21T23:06:30.458Z,9.03
2019-04-21T23:08:57.173Z,8.53
2019-04-21T23:11:34.700Z,11.13
2019-04-21T23:14:04.376Z,11.17
2019-04-21T23:16:35.583Z,9.27
2019-04-21T23:19:20.076Z,9.33
2019-04-21T23:21:53.746Z,6.63
2019-04-21T23:24:31.750Z,8.73
2019-04-21T23:26:48.639Z,8.20
2019-04-21T23:29:39.509Z,10.53
2019-04-21T23:31:55.064Z,8.53
2019-04-21T23:34:18.381Z,9.80
2019-04-21T23:36:54.474Z,9.93
2019-04-21T23:39:22.664Z,9.40
2019-04-21T23:41:47.959Z,8.80
2019-04-21T23:44:18.994Z,7.47
2019-04-21T23:46:51.273Z,8.37
2019-04-21T23:49:34.565Z,11.13
2019-04-21T23:51:56.734Z,7.43
2019-04-21T23:54:21.426Z,8.57
2019-04-21T23:56:51.754Z,9.37
2019-04-21T23:59:22.652Z,9.23
